sensor_id;sensor_type;location;lat;lon;timestamp;P1;durP1;ratioP1;P2;durP2;ratioP2
4652;SDS011;9900;48.738;9.306;2023-06-26T00:00:30;11.37;;;8.37;;
4652;SDS011;9900;48.738;9.306;2023-06-26T00:03:00;11.20;;;8.50;;
4652;SDS011;9900;48.738;9.306;2023-06-26T00:05:29;11.90;;;8.60;;
4652;SDS011;9900;48.738;9.306;2023-06-26T00:07:58;14.13;;;9.40;;
4652;SDS011;9900;48.738;9.306;2023-06-26T00:10:27;9.40;;;7.70;;
4652;SDS011;9900;48.738;9.306;2023-06-26T00:12:57;10.80;;;7.67;;
4652;SDS011;9900;48.738;9.306;2023-06-26T00:15:26;12.07;;;8.20;;
4652;SDS011;9900;48.738;9.306;2023-06-26T00:17:58;11.90;;;8.73;;
4652;SDS011;9900;48.738;9.306;2023-06-26T00:20:27;10.80;;;8.43;;
4652;SDS011;9900;48.738;9.306;2023-06-26T00:22:56;11.03;;;8.37;;
4652;SDS011;9900;48.738;9.306;2023-06-26T00:25:26;13.87;;;8.27;;
4652;SDS011;9900;48.738;9.306;2023-06-26T00:27:54;11.43;;;8.40;;
4652;SDS011;9900;48.738;9.306;2023-06-26T00:30:25;11.33;;;8.87;;
4652;SDS011;9900;48.738;9.306;2023-06-26T00:32:53;13.77;;;9.50;;
4652;SDS011;9900;48.738;9.306;2023-06-26T00:35:22;10.17;;;8.30;;
4652;SDS011;9900;48.738;9.306;2023-06-26T00:37:51;11.73;;;8.63;;
4652;SDS011;9900;48.738;9.306;2023-06-26T00:40:20;13.13;;;8.70;;
4652;SDS011;9900;48.738;9.306;2023-06-26T00:42:49;14.50;;;10.63;;
4652;SDS011;9900;48.738;9.306;2023-06-26T00:45:18;11.83;;;9.50;;
4652;SDS011;9900;48.738;9.306;2023-06-26T00:48:09;10.93;;;8.53;;
4652;SDS011;9900;48.738;9.306;2023-06-26T00:50:39;9.80;;;7.80;;
4652;SDS011;9900;48.738;9.306;2023-06-26T00:53:09;11.40;;;9.30;;
4652;SDS011;9900;48.738;9.306;2023-06-26T00:55:38;10.53;;;8.50;;
4652;SDS011;9900;48.738;9.306;2023-06-26T00:58:07;12.30;;;8.00;;
4652;SDS011;9900;48.738;9.306;2023-06-26T01:00:35;12.03;;;8.40;;
4652;SDS011;9900;48.738;9.306;2023-06-26T01:03:05;10.23;;;8.83;;
4652;SDS011;9900;48.738;9.306;2023-06-26T01:05:35;11.83;;;9.33;;
4652;SDS011;9900;48.738;9.306;2023-06-26T01:08:05;11.60;;;8.83;;
4652;SDS011;9900;48.738;9.306;2023-06-26T01:10:35;17.33;;;8.53;;
4652;SDS011;9900;48.738;9.306;2023-06-26T01:13:04;12.23;;;9.43;;
4652;SDS011;9900;48.738;9.306;2023-06-26T01:15:33;11.07;;;9.07;;
4652;SDS011;9900;48.738;9.306;2023-06-26T01:18:02;15.37;;;9.83;;
4652;SDS011;9900;48.738;9.306;2023-06-26T01:20:34;13.00;;;9.40;;
4652;SDS011;9900;48.738;9.306;2023-06-26T01:23:12;9.47;;;8.27;;
4652;SDS011;9900;48.738;9.306;2023-06-26T01:25:51;17.97;;;8.80;;
4652;SDS011;9900;48.738;9.306;2023-06-26T01:28:31;12.60;;;9.10;;
4652;SDS011;9900;48.738;9.306;2023-06-26T01:31:00;13.67;;;10.00;;
4652;SDS011;9900;48.738;9.306;2023-06-26T01:33:30;11.80;;;9.90;;
4652;SDS011;9900;48.738;9.306;2023-06-26T01:35:59;11.50;;;8.60;;
4652;SDS011;9900;48.738;9.306;2023-06-26T01:38:28;13.70;;;9.83;;
4652;SDS011;9900;48.738;9.306;2023-06-26T01:40:57;16.70;;;9.20;;
4652;SDS011;9900;48.738;9.306;2023-06-26T01:43:29;10.73;;;8.80;;
4652;SDS011;9900;48.738;9.306;2023-06-26T01:46:04;14.17;;;10.17;;
4652;SDS011;9900;48.738;9.306;2023-06-26T01:48:35;12.43;;;9.63;;
4652;SDS011;9900;48.738;9.306;2023-06-26T01:51:07;11.27;;;9.30;;
4652;SDS011;9900;48.738;9.306;2023-06-26T01:53:38;13.23;;;8.73;;
4652;SDS011;9900;48.738;9.306;2023-06-26T01:56:12;11.20;;;9.30;;
4652;SDS011;9900;48.738;9.306;2023-06-26T01:58:43;11.67;;;9.10;;
4652;SDS011;9900;48.738;9.306;2023-06-26T02:01:14;10.83;;;9.00;;
4652;SDS011;9900;48.738;9.306;2023-06-26T02:03:43;11.73;;;8.90;;
4652;SDS011;9900;48.738;9.306;2023-06-26T02:06:12;11.20;;;8.90;;
4652;SDS011;9900;48.738;9.306;2023-06-26T02:08:41;13.00;;;8.60;;
4652;SDS011;9900;48.738;9.306;2023-06-26T02:11:10;12.37;;;9.57;;
4652;SDS011;9900;48.738;9.306;2023-06-26T02:13:39;11.57;;;8.90;;
4652;SDS011;9900;48.738;9.306;2023-06-26T02:16:09;12.37;;;9.33;;
4652;SDS011;9900;48.738;9.306;2023-06-26T02:18:38;12.70;;;9.40;;
4652;SDS011;9900;48.738;9.306;2023-06-26T02:21:07;11.90;;;8.63;;
4652;SDS011;9900;48.738;9.306;2023-06-26T02:23:36;11.87;;;9.00;;
4652;SDS011;9900;48.738;9.306;2023-06-26T02:26:05;12.10;;;9.13;;
4652;SDS011;9900;48.738;9.306;2023-06-26T02:28:34;10.57;;;8.77;;
4652;SDS011;9900;48.738;9.306;2023-06-26T02:31:03;13.03;;;9.80;;
4652;SDS011;9900;48.738;9.306;2023-06-26T02:33:33;13.00;;;9.50;;
4652;SDS011;9900;48.738;9.306;2023-06-26T02:36:02;12.67;;;9.67;;
4652;SDS011;9900;48.738;9.306;2023-06-26T02:38:31;12.87;;;9.67;;
4652;SDS011;9900;48.738;9.306;2023-06-26T02:41:00;14.33;;;9.50;;
4652;SDS011;9900;48.738;9.306;2023-06-26T02:43:29;11.20;;;8.83;;
4652;SDS011;9900;48.738;9.306;2023-06-26T02:45:57;11.93;;;8.87;;
4652;SDS011;9900;48.738;9.306;2023-06-26T02:48:26;12.43;;;9.63;;
4652;SDS011;9900;48.738;9.306;2023-06-26T02:50:57;10.97;;;8.37;;
4652;SDS011;9900;48.738;9.306;2023-06-26T02:53:25;14.37;;;8.40;;
4652;SDS011;9900;48.738;9.306;2023-06-26T02:55:54;12.57;;;9.40;;
4652;SDS011;9900;48.738;9.306;2023-06-26T02:58:23;17.73;;;10.43;;
4652;SDS011;9900;48.738;9.306;2023-06-26T03:00:52;12.30;;;8.80;;
4652;SDS011;9900;48.738;9.306;2023-06-26T03:03:21;15.17;;;9.20;;
4652;SDS011;9900;48.738;9.306;2023-06-26T03:05:50;15.20;;;9.77;;
4652;SDS011;9900;48.738;9.306;2023-06-26T03:08:20;19.30;;;10.07;;
4652;SDS011;9900;48.738;9.306;2023-06-26T03:10:49;13.27;;;8.87;;
4652;SDS011;9900;48.738;9.306;2023-06-26T03:13:17;10.93;;;8.80;;
4652;SDS011;9900;48.738;9.306;2023-06-26T03:15:46;12.00;;;9.70;;
4652;SDS011;9900;48.738;9.306;2023-06-26T03:18:15;17.73;;;8.93;;
4652;SDS011;9900;48.738;9.306;2023-06-26T03:20:44;13.90;;;9.30;;
4652;SDS011;9900;48.738;9.306;2023-06-26T03:23:13;11.90;;;9.60;;
4652;SDS011;9900;48.738;9.306;2023-06-26T03:25:43;12.07;;;9.50;;
4652;SDS011;9900;48.738;9.306;2023-06-26T03:28:12;13.03;;;9.97;;
4652;SDS011;9900;48.738;9.306;2023-06-26T03:30:41;13.70;;;9.70;;
4652;SDS011;9900;48.738;9.306;2023-06-26T03:33:10;15.63;;;9.47;;
4652;SDS011;9900;48.738;9.306;2023-06-26T03:35:39;14.20;;;8.60;;
4652;SDS011;9900;48.738;9.306;2023-06-26T03:38:07;18.50;;;9.30;;
4652;SDS011;9900;48.738;9.306;2023-06-26T03:40:36;11.37;;;8.83;;
4652;SDS011;9900;48.738;9.306;2023-06-26T03:43:07;13.60;;;9.10;;
4652;SDS011;9900;48.738;9.306;2023-06-26T03:45:36;11.87;;;9.10;;
4652;SDS011;9900;48.738;9.306;2023-06-26T03:48:04;16.50;;;9.50;;
4652;SDS011;9900;48.738;9.306;2023-06-26T03:50:35;14.30;;;9.30;;
4652;SDS011;9900;48.738;9.306;2023-06-26T03:53:05;13.60;;;10.40;;
4652;SDS011;9900;48.738;9.306;2023-06-26T03:55:34;12.73;;;9.60;;
4652;SDS011;9900;48.738;9.306;2023-06-26T03:58:03;13.17;;;9.03;;
4652;SDS011;9900;48.738;9.306;2023-06-26T04:00:33;14.03;;;9.40;;
4652;SDS011;9900;48.738;9.306;2023-06-26T04:03:02;13.47;;;10.17;;
4652;SDS011;9900;48.738;9.306;2023-06-26T04:05:31;14.40;;;9.53;;
4652;SDS011;9900;48.738;9.306;2023-06-26T04:08:00;11.33;;;9.30;;
4652;SDS011;9900;48.738;9.306;2023-06-26T04:10:29;13.30;;;9.50;;
4652;SDS011;9900;48.738;9.306;2023-06-26T04:12:57;12.43;;;9.37;;
4652;SDS011;9900;48.738;9.306;2023-06-26T04:15:26;13.20;;;8.97;;
4652;SDS011;9900;48.738;9.306;2023-06-26T04:17:56;14.93;;;9.70;;
4652;SDS011;9900;48.738;9.306;2023-06-26T04:20:25;12.07;;;9.70;;
4652;SDS011;9900;48.738;9.306;2023-06-26T04:22:54;16.57;;;10.50;;
4652;SDS011;9900;48.738;9.306;2023-06-26T04:25:23;13.30;;;9.57;;
4652;SDS011;9900;48.738;9.306;2023-06-26T04:27:56;13.53;;;9.90;;
4652;SDS011;9900;48.738;9.306;2023-06-26T04:30:25;16.13;;;9.83;;
4652;SDS011;9900;48.738;9.306;2023-06-26T04:32:54;14.80;;;9.37;;
4652;SDS011;9900;48.738;9.306;2023-06-26T04:35:27;18.73;;;10.93;;
4652;SDS011;9900;48.738;9.306;2023-06-26T04:37:56;15.13;;;9.73;;
4652;SDS011;9900;48.738;9.306;2023-06-26T04:40:25;15.63;;;9.30;;
4652;SDS011;9900;48.738;9.306;2023-06-26T04:42:54;13.47;;;9.23;;
4652;SDS011;9900;48.738;9.306;2023-06-26T04:45:23;12.43;;;9.07;;
4652;SDS011;9900;48.738;9.306;2023-06-26T04:47:52;10.30;;;8.27;;
4652;SDS011;9900;48.738;9.306;2023-06-26T04:50:21;13.23;;;10.40;;
4652;SDS011;9900;48.738;9.306;2023-06-26T04:52:51;13.90;;;9.90;;
4652;SDS011;9900;48.738;9.306;2023-06-26T04:55:20;13.07;;;9.90;;
4652;SDS011;9900;48.738;9.306;2023-06-26T04:57:49;17.73;;;10.60;;
4652;SDS011;9900;48.738;9.306;2023-06-26T05:00:18;11.93;;;8.60;;
4652;SDS011;9900;48.738;9.306;2023-06-26T05:02:47;18.20;;;9.30;;
4652;SDS011;9900;48.738;9.306;2023-06-26T05:05:16;14.43;;;8.97;;
4652;SDS011;9900;48.738;9.306;2023-06-26T05:07:44;16.50;;;9.20;;
4652;SDS011;9900;48.738;9.306;2023-06-26T05:10:15;14.77;;;9.90;;
4652;SDS011;9900;48.738;9.306;2023-06-26T05:12:44;11.83;;;9.10;;
4652;SDS011;9900;48.738;9.306;2023-06-26T05:15:13;14.50;;;9.10;;
4652;SDS011;9900;48.738;9.306;2023-06-26T05:17:42;12.30;;;9.47;;
4652;SDS011;9900;48.738;9.306;2023-06-26T05:20:11;17.50;;;9.32;;
4652;SDS011;9900;48.738;9.306;2023-06-26T05:22:40;12.87;;;8.90;;
4652;SDS011;9900;48.738;9.306;2023-06-26T05:25:10;11.37;;;8.67;;
4652;SDS011;9900;48.738;9.306;2023-06-26T05:27:41;11.40;;;8.43;;
4652;SDS011;9900;48.738;9.306;2023-06-26T05:30:10;14.27;;;9.03;;
4652;SDS011;9900;48.738;9.306;2023-06-26T05:32:40;15.20;;;9.43;;
4652;SDS011;9900;48.738;9.306;2023-06-26T05:35:09;11.23;;;8.30;;
4652;SDS011;9900;48.738;9.306;2023-06-26T05:37:40;13.17;;;8.67;;
4652;SDS011;9900;48.738;9.306;2023-06-26T05:40:10;15.10;;;8.73;;
4652;SDS011;9900;48.738;9.306;2023-06-26T05:42:42;11.97;;;8.63;;
4652;SDS011;9900;48.738;9.306;2023-06-26T05:45:11;10.80;;;8.50;;
4652;SDS011;9900;48.738;9.306;2023-06-26T05:47:40;11.10;;;9.10;;
4652;SDS011;9900;48.738;9.306;2023-06-26T05:50:09;13.23;;;8.80;;
4652;SDS011;9900;48.738;9.306;2023-06-26T05:52:39;12.20;;;7.90;;
4652;SDS011;9900;48.738;9.306;2023-06-26T05:55:10;13.57;;;7.70;;
4652;SDS011;9900;48.738;9.306;2023-06-26T05:57:40;11.30;;;8.07;;
4652;SDS011;9900;48.738;9.306;2023-06-26T06:00:11;11.87;;;8.50;;
4652;SDS011;9900;48.738;9.306;2023-06-26T06:02:41;13.30;;;8.27;;
4652;SDS011;9900;48.738;9.306;2023-06-26T06:05:10;12.57;;;9.30;;
4652;SDS011;9900;48.738;9.306;2023-06-26T06:07:39;10.30;;;8.23;;
4652;SDS011;9900;48.738;9.306;2023-06-26T06:10:08;13.20;;;8.57;;
4652;SDS011;9900;48.738;9.306;2023-06-26T06:12:38;12.77;;;8.50;;
4652;SDS011;9900;48.738;9.306;2023-06-26T06:15:08;11.13;;;8.40;;
4652;SDS011;9900;48.738;9.306;2023-06-26T06:17:37;16.60;;;8.53;;
4652;SDS011;9900;48.738;9.306;2023-06-26T06:20:06;9.70;;;8.27;;
4652;SDS011;9900;48.738;9.306;2023-06-26T06:22:36;11.60;;;8.33;;
4652;SDS011;9900;48.738;9.306;2023-06-26T06:25:05;19.13;;;7.67;;
4652;SDS011;9900;48.738;9.306;2023-06-26T06:27:34;9.23;;;7.40;;
4652;SDS011;9900;48.738;9.306;2023-06-26T06:30:03;13.13;;;7.97;;
4652;SDS011;9900;48.738;9.306;2023-06-26T06:32:36;12.50;;;8.10;;
4652;SDS011;9900;48.738;9.306;2023-06-26T06:35:05;14.13;;;8.87;;
4652;SDS011;9900;48.738;9.306;2023-06-26T06:37:38;12.17;;;7.80;;
4652;SDS011;9900;48.738;9.306;2023-06-26T06:40:08;11.70;;;7.40;;
4652;SDS011;9900;48.738;9.306;2023-06-26T06:42:38;13.73;;;8.60;;
4652;SDS011;9900;48.738;9.306;2023-06-26T06:45:07;13.43;;;8.33;;
4652;SDS011;9900;48.738;9.306;2023-06-26T06:47:38;12.17;;;9.30;;
4652;SDS011;9900;48.738;9.306;2023-06-26T06:50:07;9.60;;;7.43;;
4652;SDS011;9900;48.738;9.306;2023-06-26T06:52:36;17.23;;;7.40;;
4652;SDS011;9900;48.738;9.306;2023-06-26T06:55:07;13.33;;;7.83;;
4652;SDS011;9900;48.738;9.306;2023-06-26T06:57:37;9.60;;;7.90;;
4652;SDS011;9900;48.738;9.306;2023-06-26T07:00:08;12.00;;;6.90;;
4652;SDS011;9900;48.738;9.306;2023-06-26T07:02:40;10.40;;;7.20;;
4652;SDS011;9900;48.738;9.306;2023-06-26T07:05:11;9.23;;;7.80;;
4652;SDS011;9900;48.738;9.306;2023-06-26T07:07:40;11.60;;;6.67;;
4652;SDS011;9900;48.738;9.306;2023-06-26T07:10:10;14.67;;;7.83;;
4652;SDS011;9900;48.738;9.306;2023-06-26T07:12:40;10.93;;;8.20;;
4652;SDS011;9900;48.738;9.306;2023-06-26T07:15:09;10.23;;;7.07;;
4652;SDS011;9900;48.738;9.306;2023-06-26T07:17:39;8.83;;;7.53;;
4652;SDS011;9900;48.738;9.306;2023-06-26T07:20:09;9.73;;;7.37;;
4652;SDS011;9900;48.738;9.306;2023-06-26T07:22:42;12.07;;;7.73;;
4652;SDS011;9900;48.738;9.306;2023-06-26T07:25:12;11.53;;;6.77;;
4652;SDS011;9900;48.738;9.306;2023-06-26T07:27:42;9.40;;;6.57;;
4652;SDS011;9900;48.738;9.306;2023-06-26T07:30:12;9.20;;;6.70;;
4652;SDS011;9900;48.738;9.306;2023-06-26T07:32:44;8.27;;;6.70;;
4652;SDS011;9900;48.738;9.306;2023-06-26T07:35:13;8.30;;;6.60;;
4652;SDS011;9900;48.738;9.306;2023-06-26T07:37:42;7.07;;;6.10;;
4652;SDS011;9900;48.738;9.306;2023-06-26T07:40:11;8.60;;;6.83;;
4652;SDS011;9900;48.738;9.306;2023-06-26T07:42:40;7.50;;;6.70;;
4652;SDS011;9900;48.738;9.306;2023-06-26T07:45:09;9.07;;;6.70;;
4652;SDS011;9900;48.738;9.306;2023-06-26T07:47:39;9.63;;;7.47;;
4652;SDS011;9900;48.738;9.306;2023-06-26T07:50:10;9.27;;;6.23;;
4652;SDS011;9900;48.738;9.306;2023-06-26T07:52:39;7.87;;;6.23;;
4652;SDS011;9900;48.738;9.306;2023-06-26T07:55:08;14.13;;;7.10;;
4652;SDS011;9900;48.738;9.306;2023-06-26T07:57:37;7.97;;;6.30;;
4652;SDS011;9900;48.738;9.306;2023-06-26T08:00:06;9.50;;;7.07;;
4652;SDS011;9900;48.738;9.306;2023-06-26T08:02:36;12.00;;;7.03;;
4652;SDS011;9900;48.738;9.306;2023-06-26T08:05:05;10.73;;;6.60;;
4652;SDS011;9900;48.738;9.306;2023-06-26T08:07:36;8.87;;;6.07;;
4652;SDS011;9900;48.738;9.306;2023-06-26T08:10:05;9.03;;;6.10;;
4652;SDS011;9900;48.738;9.306;2023-06-26T08:12:34;9.43;;;6.27;;
4652;SDS011;9900;48.738;9.306;2023-06-26T08:15:07;10.63;;;6.07;;
4652;SDS011;9900;48.738;9.306;2023-06-26T08:17:36;12.13;;;6.40;;
4652;SDS011;9900;48.738;9.306;2023-06-26T08:20:06;8.83;;;6.90;;
4652;SDS011;9900;48.738;9.306;2023-06-26T08:22:37;7.23;;;5.77;;
4652;SDS011;9900;48.738;9.306;2023-06-26T08:25:07;8.70;;;6.50;;
4652;SDS011;9900;48.738;9.306;2023-06-26T08:27:36;5.77;;;5.17;;
4652;SDS011;9900;48.738;9.306;2023-06-26T08:30:06;8.93;;;5.93;;
4652;SDS011;9900;48.738;9.306;2023-06-26T08:32:35;5.83;;;5.20;;
4652;SDS011;9900;48.738;9.306;2023-06-26T08:35:05;9.37;;;5.77;;
4652;SDS011;9900;48.738;9.306;2023-06-26T08:37:38;9.30;;;5.63;;
4652;SDS011;9900;48.738;9.306;2023-06-26T08:40:07;5.90;;;4.83;;
4652;SDS011;9900;48.738;9.306;2023-06-26T08:42:37;9.10;;;4.87;;
4652;SDS011;9900;48.738;9.306;2023-06-26T08:45:06;10.10;;;5.90;;
4652;SDS011;9900;48.738;9.306;2023-06-26T08:47:35;6.70;;;5.93;;
4652;SDS011;9900;48.738;9.306;2023-06-26T08:50:07;7.70;;;5.93;;
4652;SDS011;9900;48.738;9.306;2023-06-26T08:52:43;6.37;;;5.70;;
4652;SDS011;9900;48.738;9.306;2023-06-26T08:55:12;6.80;;;6.10;;
4652;SDS011;9900;48.738;9.306;2023-06-26T08:57:43;15.67;;;5.23;;
4652;SDS011;9900;48.738;9.306;2023-06-26T09:00:14;6.00;;;4.87;;
4652;SDS011;9900;48.738;9.306;2023-06-26T09:02:44;7.03;;;5.20;;
4652;SDS011;9900;48.738;9.306;2023-06-26T09:05:13;6.97;;;5.10;;
4652;SDS011;9900;48.738;9.306;2023-06-26T09:07:44;5.83;;;5.23;;
4652;SDS011;9900;48.738;9.306;2023-06-26T09:10:13;7.10;;;5.70;;
4652;SDS011;9900;48.738;9.306;2023-06-26T09:12:45;12.63;;;4.90;;
4652;SDS011;9900;48.738;9.306;2023-06-26T09:15:14;7.73;;;4.70;;
4652;SDS011;9900;48.738;9.306;2023-06-26T09:17:44;7.23;;;4.77;;
4652;SDS011;9900;48.738;9.306;2023-06-26T09:20:14;5.63;;;5.10;;
4652;SDS011;9900;48.738;9.306;2023-06-26T09:22:47;8.20;;;5.70;;
4652;SDS011;9900;48.738;9.306;2023-06-26T09:25:16;6.07;;;5.10;;
4652;SDS011;9900;48.738;9.306;2023-06-26T09:27:45;9.60;;;4.77;;
4652;SDS011;9900;48.738;9.306;2023-06-26T09:30:16;6.07;;;4.77;;
4652;SDS011;9900;48.738;9.306;2023-06-26T09:32:46;6.57;;;5.40;;
4652;SDS011;9900;48.738;9.306;2023-06-26T09:35:15;5.90;;;5.10;;
4652;SDS011;9900;48.738;9.306;2023-06-26T09:37:46;6.40;;;4.90;;
4652;SDS011;9900;48.738;9.306;2023-06-26T09:40:15;5.03;;;4.63;;
4652;SDS011;9900;48.738;9.306;2023-06-26T09:42:44;8.93;;;5.20;;
4652;SDS011;9900;48.738;9.306;2023-06-26T09:45:18;5.93;;;4.73;;
4652;SDS011;9900;48.738;9.306;2023-06-26T09:47:48;6.20;;;4.70;;
4652;SDS011;9900;48.738;9.306;2023-06-26T09:50:21;5.10;;;4.70;;
4652;SDS011;9900;48.738;9.306;2023-06-26T09:52:52;6.00;;;4.93;;
4652;SDS011;9900;48.738;9.306;2023-06-26T09:55:21;5.20;;;4.00;;
4652;SDS011;9900;48.738;9.306;2023-06-26T09:57:50;5.73;;;4.47;;
4652;SDS011;9900;48.738;9.306;2023-06-26T10:00:20;6.40;;;4.77;;
4652;SDS011;9900;48.738;9.306;2023-06-26T10:02:49;7.23;;;5.20;;
4652;SDS011;9900;48.738;9.306;2023-06-26T10:05:19;4.63;;;4.23;;
4652;SDS011;9900;48.738;9.306;2023-06-26T10:07:48;5.90;;;4.63;;
4652;SDS011;9900;48.738;9.306;2023-06-26T10:10:20;5.13;;;4.63;;
4652;SDS011;9900;48.738;9.306;2023-06-26T10:12:53;6.63;;;5.00;;
4652;SDS011;9900;48.738;9.306;2023-06-26T10:15:23;5.10;;;4.60;;
4652;SDS011;9900;48.738;9.306;2023-06-26T10:17:54;5.03;;;4.60;;
4652;SDS011;9900;48.738;9.306;2023-06-26T10:20:24;11.63;;;5.50;;
4652;SDS011;9900;48.738;9.306;2023-06-26T10:22:53;5.83;;;4.70;;
4652;SDS011;9900;48.738;9.306;2023-06-26T10:25:25;5.00;;;4.60;;
4652;SDS011;9900;48.738;9.306;2023-06-26T10:27:55;5.33;;;4.63;;
4652;SDS011;9900;48.738;9.306;2023-06-26T10:30:27;6.77;;;4.97;;
4652;SDS011;9900;48.738;9.306;2023-06-26T10:32:58;8.47;;;4.83;;
4652;SDS011;9900;48.738;9.306;2023-06-26T10:35:28;19.20;;;5.30;;
4652;SDS011;9900;48.738;9.306;2023-06-26T10:38:02;6.33;;;5.27;;
4652;SDS011;9900;48.738;9.306;2023-06-26T10:40:41;7.03;;;5.30;;
4652;SDS011;9900;48.738;9.306;2023-06-26T10:43:11;7.10;;;5.90;;
4652;SDS011;9900;48.738;9.306;2023-06-26T10:45:44;6.77;;;5.30;;
4652;SDS011;9900;48.738;9.306;2023-06-26T10:48:14;14.07;;;5.17;;
4652;SDS011;9900;48.738;9.306;2023-06-26T10:50:44;11.60;;;5.53;;
4652;SDS011;9900;48.738;9.306;2023-06-26T10:53:16;8.80;;;5.33;;
4652;SDS011;9900;48.738;9.306;2023-06-26T10:55:56;6.53;;;5.87;;
4652;SDS011;9900;48.738;9.306;2023-06-26T10:58:32;7.97;;;5.67;;
4652;SDS011;9900;48.738;9.306;2023-06-26T11:01:18;6.30;;;5.57;;
4652;SDS011;9900;48.738;9.306;2023-06-26T11:04:01;7.37;;;5.70;;
4652;SDS011;9900;48.738;9.306;2023-06-26T11:06:33;11.00;;;6.90;;
4652;SDS011;9900;48.738;9.306;2023-06-26T11:09:06;8.03;;;5.40;;
4652;SDS011;9900;48.738;9.306;2023-06-26T11:11:56;6.30;;;5.70;;
4652;SDS011;9900;48.738;9.306;2023-06-26T11:14:29;6.80;;;5.53;;
4652;SDS011;9900;48.738;9.306;2023-06-26T11:16:59;5.97;;;5.37;;
4652;SDS011;9900;48.738;9.306;2023-06-26T11:19:31;6.93;;;5.70;;
4652;SDS011;9900;48.738;9.306;2023-06-26T11:22:03;12.97;;;6.03;;
4652;SDS011;9900;48.738;9.306;2023-06-26T11:24:33;11.87;;;5.70;;
4652;SDS011;9900;48.738;9.306;2023-06-26T11:27:04;6.00;;;5.43;;
4652;SDS011;9900;48.738;9.306;2023-06-26T11:29:33;6.67;;;5.97;;
4652;SDS011;9900;48.738;9.306;2023-06-26T11:32:03;7.73;;;6.10;;
4652;SDS011;9900;48.738;9.306;2023-06-26T11:34:36;6.57;;;5.37;;
4652;SDS011;9900;48.738;9.306;2023-06-26T11:37:05;11.37;;;5.90;;
4652;SDS011;9900;48.738;9.306;2023-06-26T11:39:35;6.93;;;5.47;;
4652;SDS011;9900;48.738;9.306;2023-06-26T11:42:06;7.83;;;5.97;;
4652;SDS011;9900;48.738;9.306;2023-06-26T11:44:39;8.60;;;6.13;;
4652;SDS011;9900;48.738;9.306;2023-06-26T11:47:12;6.53;;;5.83;;
4652;SDS011;9900;48.738;9.306;2023-06-26T11:49:44;7.80;;;6.07;;
4652;SDS011;9900;48.738;9.306;2023-06-26T11:52:14;6.27;;;5.63;;
4652;SDS011;9900;48.738;9.306;2023-06-26T11:54:44;9.43;;;6.00;;
4652;SDS011;9900;48.738;9.306;2023-06-26T11:57:16;6.83;;;5.90;;
4652;SDS011;9900;48.738;9.306;2023-06-26T11:59:49;9.40;;;6.57;;
4652;SDS011;9900;48.738;9.306;2023-06-26T12:02:18;7.43;;;5.73;;
4652;SDS011;9900;48.738;9.306;2023-06-26T12:04:47;12.77;;;5.90;;
4652;SDS011;9900;48.738;9.306;2023-06-26T12:07:16;9.70;;;6.13;;
4652;SDS011;9900;48.738;9.306;2023-06-26T12:09:46;10.87;;;6.10;;
4652;SDS011;9900;48.738;9.306;2023-06-26T12:12:17;17.67;;;6.00;;
4652;SDS011;9900;48.738;9.306;2023-06-26T12:14:46;5.83;;;5.33;;
4652;SDS011;9900;48.738;9.306;2023-06-26T12:17:15;8.03;;;5.20;;
4652;SDS011;9900;48.738;9.306;2023-06-26T12:19:44;15.53;;;6.00;;
4652;SDS011;9900;48.738;9.306;2023-06-26T12:22:16;8.33;;;6.17;;
4652;SDS011;9900;48.738;9.306;2023-06-26T12:24:45;10.33;;;5.50;;
4652;SDS011;9900;48.738;9.306;2023-06-26T12:27:18;6.73;;;5.47;;
4652;SDS011;9900;48.738;9.306;2023-06-26T12:29:49;7.60;;;5.57;;
4652;SDS011;9900;48.738;9.306;2023-06-26T12:32:21;11.03;;;5.83;;
4652;SDS011;9900;48.738;9.306;2023-06-26T12:34:51;9.60;;;5.90;;
4652;SDS011;9900;48.738;9.306;2023-06-26T12:37:21;9.10;;;6.47;;
4652;SDS011;9900;48.738;9.306;2023-06-26T12:39:50;11.73;;;5.63;;
4652;SDS011;9900;48.738;9.306;2023-06-26T12:42:22;11.97;;;5.73;;
4652;SDS011;9900;48.738;9.306;2023-06-26T12:44:52;5.67;;;5.00;;
4652;SDS011;9900;48.738;9.306;2023-06-26T12:47:23;7.00;;;5.90;;
4652;SDS011;9900;48.738;9.306;2023-06-26T12:49:54;10.33;;;6.50;;
4652;SDS011;9900;48.738;9.306;2023-06-26T12:52:25;12.67;;;6.20;;
4652;SDS011;9900;48.738;9.306;2023-06-26T12:54:54;6.60;;;5.80;;
4652;SDS011;9900;48.738;9.306;2023-06-26T12:57:25;11.97;;;5.27;;
4652;SDS011;9900;48.738;9.306;2023-06-26T12:59:54;8.87;;;6.67;;
4652;SDS011;9900;48.738;9.306;2023-06-26T13:02:23;7.50;;;5.27;;
4652;SDS011;9900;48.738;9.306;2023-06-26T13:04:52;12.57;;;5.87;;
4652;SDS011;9900;48.738;9.306;2023-06-26T13:07:21;8.40;;;5.63;;
4652;SDS011;9900;48.738;9.306;2023-06-26T13:09:53;8.80;;;5.80;;
4652;SDS011;9900;48.738;9.306;2023-06-26T13:12:23;8.20;;;6.00;;
4652;SDS011;9900;48.738;9.306;2023-06-26T13:14:53;10.27;;;6.60;;
4652;SDS011;9900;48.738;9.306;2023-06-26T13:17:22;6.27;;;5.53;;
4652;SDS011;9900;48.738;9.306;2023-06-26T13:19:50;8.30;;;5.30;;
4652;SDS011;9900;48.738;9.306;2023-06-26T13:22:19;7.97;;;5.73;;
4652;SDS011;9900;48.738;9.306;2023-06-26T13:24:48;9.23;;;6.10;;
4652;SDS011;9900;48.738;9.306;2023-06-26T13:27:17;7.73;;;5.93;;
4652;SDS011;9900;48.738;9.306;2023-06-26T13:29:47;6.10;;;5.50;;
4652;SDS011;9900;48.738;9.306;2023-06-26T13:32:17;7.57;;;5.13;;
4652;SDS011;9900;48.738;9.306;2023-06-26T13:34:46;13.70;;;5.80;;
4652;SDS011;9900;48.738;9.306;2023-06-26T13:37:16;10.20;;;5.97;;
4652;SDS011;9900;48.738;9.306;2023-06-26T13:39:45;9.17;;;5.20;;
4652;SDS011;9900;48.738;9.306;2023-06-26T13:42:17;12.70;;;6.00;;
4652;SDS011;9900;48.738;9.306;2023-06-26T13:44:46;10.00;;;5.57;;
4652;SDS011;9900;48.738;9.306;2023-06-26T13:47:32;7.27;;;4.70;;
4652;SDS011;9900;48.738;9.306;2023-06-26T13:50:02;9.83;;;5.63;;
4652;SDS011;9900;48.738;9.306;2023-06-26T13:52:31;11.63;;;5.60;;
4652;SDS011;9900;48.738;9.306;2023-06-26T13:55:00;8.00;;;5.90;;
4652;SDS011;9900;48.738;9.306;2023-06-26T13:57:31;5.83;;;5.27;;
4652;SDS011;9900;48.738;9.306;2023-06-26T14:00:01;5.73;;;5.13;;
4652;SDS011;9900;48.738;9.306;2023-06-26T14:02:33;6.40;;;5.10;;
4652;SDS011;9900;48.738;9.306;2023-06-26T14:05:02;6.10;;;5.50;;
4652;SDS011;9900;48.738;9.306;2023-06-26T14:07:31;9.83;;;4.97;;
4652;SDS011;9900;48.738;9.306;2023-06-26T14:10:00;6.70;;;4.90;;
4652;SDS011;9900;48.738;9.306;2023-06-26T14:12:29;12.23;;;5.50;;
4652;SDS011;9900;48.738;9.306;2023-06-26T14:14:58;6.77;;;5.17;;
4652;SDS011;9900;48.738;9.306;2023-06-26T14:17:27;6.03;;;5.00;;
4652;SDS011;9900;48.738;9.306;2023-06-26T14:19:58;11.63;;;5.50;;
4652;SDS011;9900;48.738;9.306;2023-06-26T14:22:26;14.93;;;5.20;;
4652;SDS011;9900;48.738;9.306;2023-06-26T14:24:56;8.20;;;5.17;;
4652;SDS011;9900;48.738;9.306;2023-06-26T14:27:24;7.80;;;5.90;;
4652;SDS011;9900;48.738;9.306;2023-06-26T14:29:53;9.00;;;4.50;;
4652;SDS011;9900;48.738;9.306;2023-06-26T14:32:22;6.00;;;5.00;;
4652;SDS011;9900;48.738;9.306;2023-06-26T14:34:51;5.13;;;4.63;;
4652;SDS011;9900;48.738;9.306;2023-06-26T14:37:21;4.37;;;3.97;;
4652;SDS011;9900;48.738;9.306;2023-06-26T14:39:51;4.63;;;4.23;;
4652;SDS011;9900;48.738;9.306;2023-06-26T14:42:21;10.83;;;4.63;;
4652;SDS011;9900;48.738;9.306;2023-06-26T14:44:50;5.50;;;4.37;;
4652;SDS011;9900;48.738;9.306;2023-06-26T14:47:19;4.07;;;3.67;;
4652;SDS011;9900;48.738;9.306;2023-06-26T14:49:47;5.70;;;4.13;;
4652;SDS011;9900;48.738;9.306;2023-06-26T14:52:16;5.50;;;4.33;;
4652;SDS011;9900;48.738;9.306;2023-06-26T14:54:46;5.47;;;3.80;;
4652;SDS011;9900;48.738;9.306;2023-06-26T14:57:15;8.67;;;3.90;;
4652;SDS011;9900;48.738;9.306;2023-06-26T14:59:44;7.00;;;3.83;;
4652;SDS011;9900;48.738;9.306;2023-06-26T15:02:13;5.70;;;3.13;;
4652;SDS011;9900;48.738;9.306;2023-06-26T15:04:41;5.67;;;3.40;;
4652;SDS011;9900;48.738;9.306;2023-06-26T15:07:11;8.27;;;3.47;;
4652;SDS011;9900;48.738;9.306;2023-06-26T15:09:39;9.20;;;3.43;;
4652;SDS011;9900;48.738;9.306;2023-06-26T15:12:10;5.63;;;3.70;;
4652;SDS011;9900;48.738;9.306;2023-06-26T15:14:39;18.63;;;4.07;;
4652;SDS011;9900;48.738;9.306;2023-06-26T15:17:08;4.70;;;3.53;;
4652;SDS011;9900;48.738;9.306;2023-06-26T15:19:37;5.93;;;3.47;;
4652;SDS011;9900;48.738;9.306;2023-06-26T15:22:06;4.07;;;3.00;;
4652;SDS011;9900;48.738;9.306;2023-06-26T15:24:35;5.60;;;3.50;;